createdAt,value
2018-12-20T00:00:40.812Z,1.67
2018-12-20T00:03:09.312Z,1.66
2018-12-20T00:05:37.975Z,1.57
2018-12-20T00:08:06.547Z,1.56
2018-12-20T00:10:35.010Z,1.56
2018-12-20T00:13:03.481Z,1.49
2018-12-20T00:15:32.063Z,1.51
2018-12-20T00:18:00.683Z,1.51
2018-12-20T00:20:29.231Z,1.54
2018-12-20T00:22:57.733Z,1.60
2018-12-20T00:31:13.671Z,1.76
2018-12-20T00:36:35.496Z,1.79
2018-12-20T00:39:06.142Z,1.81
2018-12-20T00:45:07.383Z,1.70
2018-12-20T01:27:50.672Z,1.30
2018-12-20T01:30:19.221Z,1.27
2018-12-20T01:32:47.753Z,1.18
2018-12-20T01:35:16.261Z,1.13
2018-12-20T01:43:30.321Z,0.88
2018-12-20T01:45:58.792Z,0.90
2018-12-20T01:51:23.782Z,1.05
2018-12-20T01:53:52.388Z,1.13
2018-12-20T01:56:20.909Z,1.13
2018-12-20T01:58:49.390Z,1.12
2018-12-20T02:04:10.417Z,1.05
2018-12-20T02:12:24.227Z,0.93
2018-12-20T02:14:52.871Z,0.86
2018-12-20T02:17:21.393Z,0.84
2018-12-20T02:19:49.844Z,0.86
2018-12-20T02:22:18.568Z,0.83
2018-12-20T02:24:47.031Z,0.82
2018-12-20T02:27:19.552Z,0.85
2018-12-20T02:29:48.355Z,0.87
2018-12-20T02:40:55.440Z,0.73
2018-12-20T02:43:23.927Z,0.75
2018-12-20T02:48:44.619Z,0.68
2018-12-20T02:58:31.521Z,0.64
2018-12-20T03:03:53.135Z,0.54
2018-12-20T03:12:07.210Z,0.65
2018-12-20T03:14:36.135Z,0.69
2018-12-20T03:17:05.126Z,0.64
2018-12-20T03:19:33.846Z,0.67
2018-12-20T03:22:02.562Z,0.66
2018-12-20T03:24:31.219Z,0.60
2018-12-20T03:27:00.009Z,0.61
2018-12-20T03:29:28.600Z,0.60
2018-12-20T03:31:57.626Z,0.57
2018-12-20T03:34:26.441Z,0.61
2018-12-20T03:36:55.106Z,0.62
2018-12-20T03:39:23.657Z,0.63
2018-12-20T03:41:52.266Z,0.67
2018-12-20T03:44:20.886Z,0.68
2018-12-20T03:46:49.408Z,0.57
2018-12-20T03:49:17.946Z,0.52
2018-12-20T03:51:46.694Z,0.47
2018-12-20T03:54:15.707Z,0.48
2018-12-20T03:56:44.292Z,0.44
2018-12-20T03:59:12.786Z,0.45
2018-12-20T04:01:41.382Z,0.45
2018-12-20T04:04:09.915Z,0.40
2018-12-20T04:12:55.284Z,0.41
2018-12-20T04:21:08.719Z,0.41
2018-12-20T04:23:37.267Z,0.43
2018-12-20T04:26:06.444Z,0.37
2018-12-20T04:28:34.866Z,0.38
2018-12-20T04:31:03.333Z,0.36
2018-12-20T04:33:31.767Z,0.38
2018-12-20T04:36:00.345Z,0.47
2018-12-20T04:38:28.882Z,0.55
2018-12-20T04:40:57.622Z,0.56
2018-12-20T04:43:26.228Z,0.57
2018-12-20T04:45:54.886Z,0.59
2018-12-20T04:54:08.674Z,0.45
2018-12-20T04:56:37.316Z,0.38
2018-12-20T05:01:58.570Z,0.39
2018-12-20T05:04:27.023Z,0.44
2018-12-20T05:06:55.478Z,0.42
2018-12-20T05:09:23.891Z,0.44
2018-12-20T05:11:52.343Z,0.46
2018-12-20T05:14:20.983Z,0.40
2018-12-20T05:16:49.643Z,0.45
2018-12-20T05:25:03.422Z,0.40
2018-12-20T05:27:31.891Z,0.37
2018-12-20T05:33:01.594Z,0.38
2018-12-20T05:35:30.329Z,0.27
2018-12-20T05:43:45.053Z,0.33
2018-12-20T05:46:13.662Z,0.46
2018-12-20T05:48:42.326Z,0.46
2018-12-20T05:51:10.906Z,0.39
2018-12-20T05:53:39.441Z,0.34
2018-12-20T05:56:07.957Z,0.28
2018-12-20T05:58:36.392Z,0.28
2018-12-20T06:01:04.866Z,0.38
2018-12-20T06:03:33.329Z,0.23
2018-12-20T06:06:01.860Z,0.18
2018-12-20T06:08:30.323Z,0.20
2018-12-20T06:10:58.767Z,0.17
2018-12-20T06:13:27.396Z,0.17
2018-12-20T06:15:55.915Z,0.14
2018-12-20T06:18:24.629Z,0.19
2018-12-20T06:20:53.251Z,0.20
2018-12-20T06:23:21.738Z,0.10
2018-12-20T06:25:50.288Z,0.15
2018-12-20T06:28:18.773Z,0.10
2018-12-20T06:30:47.296Z,0.12
2018-12-20T06:33:16.783Z,0.09
2018-12-20T06:35:45.235Z,0.20
2018-12-20T06:38:14.279Z,0.23
2018-12-20T06:40:42.734Z,0.11
2018-12-20T06:43:11.284Z,0.19
2018-12-20T06:45:39.748Z,0.27
2018-12-20T06:48:08.248Z,0.26
2018-12-20T06:50:36.710Z,0.31
2018-12-20T06:53:05.295Z,0.17
2018-12-20T06:55:33.735Z,0.24
2018-12-20T06:58:02.387Z,0.30
2018-12-20T07:00:30.932Z,0.30
2018-12-20T07:02:59.452Z,0.37
2018-12-20T07:05:27.915Z,0.50
2018-12-20T07:07:56.408Z,0.56
2018-12-20T07:10:24.911Z,0.55
2018-12-20T07:12:54.821Z,0.59
2018-12-20T07:15:23.489Z,0.64
2018-12-20T07:17:52.048Z,0.69
2018-12-20T07:20:20.523Z,0.64
2018-12-20T07:22:49.122Z,0.57
2018-12-20T07:25:17.557Z,0.62
2018-12-20T07:27:46.038Z,0.63
2018-12-20T07:30:18.142Z,0.67
2018-12-20T07:35:47.244Z,0.63
2018-12-20T07:41:09.800Z,0.49
2018-12-20T07:46:37.807Z,0.52
2018-12-20T07:49:01.751Z,0.57
2018-12-20T07:51:30.248Z,0.58
2018-12-20T07:59:24.809Z,0.34
2018-12-20T08:04:46.076Z,0.40
2018-12-20T08:07:16.032Z,0.35
2018-12-20T08:09:44.603Z,0.37
2018-12-20T08:12:13.096Z,0.34
2018-12-20T08:14:42.163Z,0.37
2018-12-20T08:17:10.606Z,0.36
2018-12-20T08:19:39.110Z,0.38
2018-12-20T08:25:00.480Z,0.40
2018-12-20T08:27:28.960Z,0.46
2018-12-20T08:38:33.064Z,0.61
2018-12-20T08:41:01.524Z,0.61
2018-12-20T08:43:29.996Z,0.56
2018-12-20T08:45:58.441Z,0.46
2018-12-20T08:48:26.907Z,0.54
2018-12-20T08:50:55.376Z,0.48
2018-12-20T08:53:23.867Z,0.51
2018-12-20T08:55:52.323Z,0.56
2018-12-20T08:58:20.796Z,0.68
2018-12-20T09:00:49.245Z,0.68
2018-12-20T09:03:17.717Z,0.80
2018-12-20T09:05:46.159Z,0.82
2018-12-20T09:14:00.067Z,0.66
2018-12-20T09:16:28.544Z,0.69
2018-12-20T09:18:57.034Z,0.63
2018-12-20T09:21:26.535Z,0.69
2018-12-20T09:23:58.701Z,0.71
2018-12-20T09:26:27.530Z,0.62
2018-12-20T09:28:56.148Z,0.59
2018-12-20T09:31:24.620Z,0.59
2018-12-20T09:33:53.094Z,0.52
2018-12-20T09:36:21.812Z,0.56
2018-12-20T09:38:50.285Z,0.60
2018-12-20T09:41:18.835Z,0.63
2018-12-20T09:43:47.407Z,0.68
2018-12-20T09:46:15.863Z,0.58
2018-12-20T09:48:46.329Z,0.66
2018-12-20T09:51:14.955Z,0.57
2018-12-20T09:53:43.452Z,0.55
2018-12-20T09:56:12.044Z,0.64
2018-12-20T09:58:40.490Z,0.64
2018-12-20T10:01:09.017Z,0.74
2018-12-20T10:03:37.559Z,0.70
2018-12-20T10:06:06.161Z,0.71
2018-12-20T10:08:34.767Z,0.73
2018-12-20T10:11:03.247Z,0.82
2018-12-20T10:13:31.696Z,0.94
2018-12-20T10:18:59.035Z,1.04
2018-12-20T10:21:27.488Z,1.09
2018-12-20T10:23:55.951Z,1.02
2018-12-20T10:26:24.519Z,1.02
2018-12-20T10:28:52.938Z,0.93
2018-12-20T10:31:21.423Z,0.95
2018-12-20T10:33:49.880Z,0.90
2018-12-20T10:36:18.341Z,0.88
2018-12-20T10:38:46.923Z,0.93
2018-12-20T10:41:15.398Z,0.93
2018-12-20T10:43:43.826Z,1.03
2018-12-20T10:46:12.286Z,1.10
2018-12-20T10:48:40.722Z,1.10
2018-12-20T10:51:09.173Z,1.04
2018-12-20T10:53:37.616Z,1.15
2018-12-20T10:56:06.100Z,1.12
2018-12-20T10:58:34.546Z,1.17
2018-12-20T11:01:08.339Z,1.18
2018-12-20T11:03:42.151Z,1.17
2018-12-20T11:07:14.501Z,1.21
2018-12-20T11:09:48.206Z,1.12
2018-12-20T11:12:20.789Z,1.15
2018-12-20T11:14:49.263Z,1.11
2018-12-20T11:17:17.691Z,1.11
2018-12-20T11:19:46.163Z,1.23
2018-12-20T11:22:14.603Z,1.26
2018-12-20T11:24:43.076Z,1.25
2018-12-20T11:27:11.508Z,1.31
2018-12-20T11:29:40.007Z,1.27
2018-12-20T11:32:08.472Z,1.37
2018-12-20T11:34:36.911Z,1.36
2018-12-20T11:37:05.375Z,1.31
2018-12-20T11:39:33.870Z,1.31
2018-12-20T11:42:02.331Z,1.33
2018-12-20T11:44:31.003Z,1.34
2018-12-20T11:46:59.583Z,1.38
2018-12-20T11:49:28.042Z,1.47
2018-12-20T11:51:56.487Z,1.57
2018-12-20T11:54:24.932Z,1.68
2018-12-20T11:56:53.378Z,1.69
2018-12-20T11:59:21.826Z,1.69
2018-12-20T12:01:50.294Z,1.68
2018-12-20T12:04:18.714Z,1.65
2018-12-20T12:06:47.191Z,1.60
2018-12-20T12:09:15.615Z,1.63
2018-12-20T12:11:44.125Z,1.63
2018-12-20T12:14:12.591Z,1.60
2018-12-20T12:16:41.175Z,1.57
2018-12-20T12:19:09.583Z,1.58
2018-12-20T12:21:38.038Z,1.61
2018-12-20T12:24:06.468Z,1.65
2018-12-20T12:26:35.038Z,1.70
2018-12-20T12:29:03.601Z,1.71
2018-12-20T12:31:32.076Z,1.74
2018-12-20T12:34:00.527Z,1.94
2018-12-20T12:36:29.140Z,2.17
2018-12-20T12:38:57.583Z,2.39
2018-12-20T12:41:26.084Z,2.42
2018-12-20T12:43:54.515Z,2.37
2018-12-20T12:46:22.963Z,2.33
2018-12-20T12:48:51.392Z,2.22
2018-12-20T12:51:19.814Z,2.08
2018-12-20T12:53:48.285Z,2.00
2018-12-20T12:56:16.724Z,2.07
2018-12-20T12:58:45.191Z,2.24
2018-12-20T13:01:14.776Z,2.30
2018-12-20T13:03:43.255Z,2.59
2018-12-20T13:06:11.739Z,2.94
2018-12-20T13:08:40.215Z,3.27
2018-12-20T13:11:08.671Z,3.19
2018-12-20T13:13:37.146Z,2.99
2018-12-20T13:16:05.628Z,2.80
2018-12-20T13:18:34.106Z,2.65
2018-12-20T13:21:02.540Z,2.61
2018-12-20T13:23:30.999Z,2.55
2018-12-20T13:25:59.459Z,2.50
2018-12-20T13:28:27.919Z,2.38
2018-12-20T13:30:56.391Z,2.30
2018-12-20T13:33:24.850Z,2.33
2018-12-20T13:35:53.286Z,2.41
2018-12-20T13:38:21.801Z,2.50
2018-12-20T13:40:50.315Z,2.48
2018-12-20T13:43:18.791Z,2.47
2018-12-20T13:45:47.234Z,2.46
2018-12-20T13:48:22.173Z,2.50
2018-12-20T13:50:46.175Z,2.54
2018-12-20T13:53:14.630Z,2.53
2018-12-20T13:55:43.093Z,2.52
2018-12-20T13:58:11.622Z,2.61
2018-12-20T14:00:40.484Z,2.63
2018-12-20T14:03:09.086Z,2.65
2018-12-20T14:05:37.527Z,2.66
2018-12-20T14:08:05.995Z,2.67
2018-12-20T14:10:34.477Z,2.72
2018-12-20T14:13:02.948Z,2.69
2018-12-20T14:15:31.431Z,2.67
2018-12-20T14:17:59.899Z,2.58
2018-12-20T14:20:28.331Z,2.55
2018-12-20T14:22:56.802Z,2.46
2018-12-20T14:25:25.261Z,2.46
2018-12-20T14:27:53.739Z,2.40
2018-12-20T14:30:22.157Z,2.36
2018-12-20T14:32:50.602Z,2.38
2018-12-20T14:35:19.071Z,2.38
2018-12-20T14:37:47.519Z,2.39
2018-12-20T14:40:15.998Z,2.37
2018-12-20T14:42:44.519Z,2.32
2018-12-20T14:45:13.126Z,2.26
2018-12-20T14:47:41.551Z,2.19
2018-12-20T14:50:10.331Z,2.12
2018-12-20T14:52:38.776Z,2.12
2018-12-20T14:55:08.765Z,2.12
2018-12-20T14:57:37.311Z,2.13
2018-12-20T15:00:07.683Z,2.11
2018-12-20T15:02:36.138Z,2.05
2018-12-20T15:05:04.955Z,1.97
2018-12-20T15:07:33.418Z,1.93
2018-12-20T15:10:01.937Z,1.91
2018-12-20T15:12:30.381Z,1.86
2018-12-20T15:14:58.881Z,1.80
2018-12-20T15:17:27.343Z,1.71
2018-12-20T15:19:55.827Z,1.70
2018-12-20T15:22:24.272Z,1.67
2018-12-20T15:24:52.751Z,1.67
2018-12-20T15:27:21.194Z,1.69
2018-12-20T15:29:49.656Z,1.75
2018-12-20T15:32:18.066Z,1.76
2018-12-20T15:34:46.581Z,1.75
2018-12-20T15:37:15.034Z,1.74
2018-12-20T15:39:43.535Z,1.76
2018-12-20T15:42:11.992Z,1.78
2018-12-20T15:44:40.501Z,1.76
2018-12-20T15:47:09.044Z,1.78
2018-12-20T15:49:41.916Z,1.84
2018-12-20T15:52:08.016Z,1.88
2018-12-20T15:54:36.512Z,1.89
2018-12-20T15:57:04.963Z,1.87
2018-12-20T15:59:33.407Z,1.81
2018-12-20T16:02:01.851Z,1.79
2018-12-20T16:04:30.328Z,1.71
2018-12-20T16:06:58.779Z,1.70
2018-12-20T16:09:27.236Z,1.67
2018-12-20T16:11:55.680Z,1.73
2018-12-20T16:14:24.201Z,1.92
2018-12-20T16:16:52.641Z,2.03
2018-12-20T16:19:21.138Z,2.06
2018-12-20T16:21:49.819Z,2.09
2018-12-20T16:24:18.287Z,2.16
2018-12-20T16:26:46.763Z,2.18
2018-12-20T16:29:15.193Z,2.23
2018-12-20T16:31:43.777Z,2.23
2018-12-20T16:34:12.548Z,2.21
2018-12-20T16:36:41.047Z,2.26
2018-12-20T16:39:09.717Z,2.32
2018-12-20T16:41:38.187Z,2.32
2018-12-20T16:44:06.619Z,2.26
2018-12-20T16:46:35.097Z,2.22
2018-12-20T16:49:03.551Z,2.21
2018-12-20T16:51:32.021Z,2.21
2018-12-20T16:54:00.462Z,2.20
2018-12-20T16:56:28.936Z,2.10
2018-12-20T16:58:57.367Z,2.01
2018-12-20T17:01:25.855Z,2.04
2018-12-20T17:03:54.295Z,2.03
2018-12-20T17:06:22.776Z,2.07
2018-12-20T17:08:51.205Z,2.17
2018-12-20T17:11:19.664Z,2.27
2018-12-20T17:13:48.131Z,2.33
2018-12-20T17:16:16.741Z,2.29
2018-12-20T17:18:45.194Z,2.29
2018-12-20T17:21:13.675Z,2.29
2018-12-20T17:23:42.111Z,2.07
2018-12-20T17:26:10.558Z,1.98
2018-12-20T17:28:39.007Z,1.89
2018-12-20T17:31:07.459Z,1.84
2018-12-20T17:33:35.895Z,1.86
2018-12-20T17:36:04.379Z,1.81
2018-12-20T17:38:32.943Z,1.90
2018-12-20T17:41:01.435Z,1.92
2018-12-20T17:43:29.891Z,1.93
2018-12-20T17:45:58.375Z,2.00
2018-12-20T17:48:29.433Z,2.03
2018-12-20T17:50:57.314Z,2.08
2018-12-20T17:53:25.879Z,2.11
2018-12-20T17:55:54.553Z,2.05
2018-12-20T17:58:23.199Z,2.05
2018-12-20T18:00:51.680Z,2.02
2018-12-20T18:03:20.167Z,1.96
2018-12-20T18:05:48.648Z,1.92
2018-12-20T18:08:17.097Z,1.89
2018-12-20T18:10:45.571Z,1.87
2018-12-20T18:13:14.054Z,1.85
2018-12-20T18:15:42.553Z,1.87
2018-12-20T18:18:10.971Z,1.87
2018-12-20T18:20:39.427Z,1.89
2018-12-20T18:23:07.954Z,1.85
2018-12-20T18:25:36.571Z,1.82
2018-12-20T18:28:05.039Z,1.87
2018-12-20T18:30:33.517Z,1.88
2018-12-20T18:33:02.092Z,1.91
2018-12-20T18:35:30.574Z,1.91
2018-12-20T18:37:59.032Z,1.94
2018-12-20T18:40:27.552Z,1.92
2018-12-20T18:42:56.002Z,1.92
2018-12-20T18:45:24.476Z,1.87
2018-12-20T18:47:53.055Z,1.89
2018-12-20T18:50:21.520Z,1.89
2018-12-20T18:52:50.032Z,1.90
2018-12-20T18:55:18.534Z,1.97
2018-12-20T18:57:46.982Z,1.98
2018-12-20T19:00:15.664Z,2.02
2018-12-20T19:02:44.127Z,2.03
2018-12-20T19:05:12.580Z,1.97
2018-12-20T19:07:41.064Z,1.97
2018-12-20T19:10:09.713Z,1.99
2018-12-20T19:12:38.184Z,2.13
2018-12-20T19:15:08.419Z,2.20
2018-12-20T19:17:36.900Z,2.21
2018-12-20T19:20:06.914Z,2.25
2018-12-20T19:22:37.074Z,2.28
2018-12-20T19:25:06.435Z,2.29
2018-12-20T19:27:34.908Z,2.35
2018-12-20T19:30:03.515Z,2.35
2018-12-20T19:32:31.979Z,2.33
2018-12-20T19:35:00.439Z,2.37
2018-12-20T19:37:28.927Z,2.33
2018-12-20T19:40:02.428Z,2.27
2018-12-20T19:42:30.879Z,2.21
2018-12-20T19:44:59.303Z,2.15
2018-12-20T19:47:27.763Z,2.10
2018-12-20T19:50:04.602Z,2.10
2018-12-20T19:52:27.159Z,2.11
2018-12-20T19:54:55.811Z,2.05
2018-12-20T19:57:24.684Z,2.07
2018-12-20T19:59:54.043Z,2.07
2018-12-20T20:02:23.524Z,2.07
2018-12-20T20:04:52.881Z,2.06
2018-12-20T20:07:21.411Z,2.10
2018-12-20T20:09:49.892Z,2.15
2018-12-20T20:12:18.410Z,2.19
2018-12-20T20:14:47.072Z,2.20
2018-12-20T20:17:15.539Z,2.24
2018-12-20T20:19:43.978Z,2.27
2018-12-20T20:22:12.694Z,2.28
2018-12-20T20:24:41.130Z,2.32
2018-12-20T20:27:09.607Z,2.25
2018-12-20T20:29:38.049Z,2.24
2018-12-20T20:32:06.548Z,2.19
2018-12-20T20:34:35.105Z,2.27
2018-12-20T20:37:03.584Z,2.30
2018-12-20T20:39:32.029Z,2.32
2018-12-20T20:42:00.503Z,2.33
2018-12-20T20:44:28.954Z,2.40
2018-12-20T20:46:57.423Z,2.40
2018-12-20T20:49:25.871Z,2.30
2018-12-20T20:51:54.373Z,2.34
2018-12-20T20:54:22.815Z,2.27
2018-12-20T20:56:51.293Z,2.34
2018-12-20T20:59:19.743Z,2.36
2018-12-20T21:01:48.311Z,2.40
2018-12-20T21:04:16.765Z,2.41
2018-12-20T21:06:47.074Z,2.38
2018-12-20T21:09:15.687Z,2.44
2018-12-20T21:11:44.128Z,2.42
2018-12-20T21:14:12.624Z,2.35
2018-12-20T21:16:41.077Z,2.37
2018-12-20T21:19:09.536Z,2.37
2018-12-20T21:21:38.012Z,2.47
2018-12-20T21:24:06.615Z,2.45
2018-12-20T21:26:35.067Z,2.50
2018-12-20T21:29:03.543Z,2.47
2018-12-20T21:31:31.982Z,2.43
2018-12-20T21:34:00.492Z,2.45
2018-12-20T21:36:28.945Z,2.42
2018-12-20T21:38:57.423Z,2.47
2018-12-20T21:41:25.895Z,2.49
2018-12-20T21:43:54.358Z,2.51
2018-12-20T21:46:22.813Z,2.50
2018-12-20T21:48:51.284Z,2.47
2018-12-20T21:51:19.726Z,2.44
2018-12-20T21:53:54.847Z,2.38
2018-12-20T22:03:14.013Z,1.93
2018-12-20T22:05:42.427Z,1.93
2018-12-20T22:08:10.894Z,1.96
2018-12-20T22:10:39.339Z,2.03
2018-12-20T22:13:07.810Z,2.12
2018-12-20T22:15:36.286Z,2.14
2018-12-20T22:18:04.763Z,2.23
2018-12-20T22:20:33.206Z,2.26
2018-12-20T22:23:01.663Z,2.37
2018-12-20T22:25:30.140Z,2.44
2018-12-20T22:27:58.588Z,2.48
2018-12-20T22:30:27.075Z,2.55
2018-12-20T22:32:55.506Z,2.54
2018-12-20T22:35:23.961Z,2.65
2018-12-20T22:37:52.403Z,2.66
2018-12-20T22:40:20.859Z,2.61
2018-12-20T22:42:49.281Z,2.63
2018-12-20T22:45:17.737Z,2.63
2018-12-20T22:47:46.178Z,2.62
2018-12-20T22:50:14.637Z,2.61
2018-12-20T22:52:43.203Z,2.61
2018-12-20T22:55:11.667Z,2.68
2018-12-20T22:57:40.081Z,2.60
2018-12-20T23:00:11.360Z,2.56
2018-12-20T23:02:39.962Z,2.53
2018-12-20T23:05:08.443Z,2.60
2018-12-20T23:07:36.904Z,2.59
2018-12-20T23:10:05.943Z,2.57
2018-12-20T23:12:34.379Z,2.64
2018-12-20T23:15:02.887Z,2.64
2018-12-20T23:17:31.331Z,2.61
2018-12-20T23:19:59.782Z,2.68
2018-12-20T23:22:28.217Z,2.74
2018-12-20T23:24:56.683Z,2.75
2018-12-20T23:27:25.111Z,2.78
2018-12-20T23:29:53.550Z,2.81
2018-12-20T23:32:21.991Z,2.78
2018-12-20T23:34:50.458Z,2.85
2018-12-20T23:37:18.903Z,2.90
2018-12-20T23:39:47.382Z,2.77
2018-12-20T23:42:16.339Z,2.79
2018-12-20T23:44:44.847Z,2.76
2018-12-20T23:47:13.275Z,2.77
2018-12-20T23:49:41.730Z,2.83
2018-12-20T23:52:10.239Z,2.80
2018-12-20T23:54:38.715Z,2.77
2018-12-20T23:57:07.147Z,2.76
2018-12-20T23:59:35.614Z,2.76
